CheckWX is a tool to help pilots better visualize weather data.  It is not intended as a substitute for an official pre-flight weather briefing.

20:29:50 UTC

HRYR TAF
Kigali International Airport
Kigali, Rwanda
HRYR 221700Z 2218/2323 07015KT 9999 -TSRA FEW023CB BKN025 FM 222100 32004KT SCT026 SCT100 BECMG 2302/2305 VRB03KT 7000 FEW026 SCT100 FM 230800 16009KT 9999 -RA BKN023 BKN090 TEMPO 2312/2316 18010G20KT TS/-TSRA FEW020CB BKN023 FM 231800 06004KT SCT026 SCT100

Mar-22@
18:00 UTC

Mar-22 @ 18:00 UTC

Mar-22@
21:00 UTC

Mar-22 @ 21:00 UTC

HRYR 221700Z 2218/2323 07015KT 9999 -TSRA FEW023CB BKN025 FM 222100 32004KT SCT026 SCT100
Wind
  • 070° at 15 KTS
Conditions
Light Thunderstorm, Light Rain
Cloud Levels
  • Few at 2,300' AGL
  • Broken at 2,500' AGL

Mar-22@
21:00 UTC

Mar-22 @ 21:00 UTC

Mar-23@
02:00 UTC

Mar-23 @ 02:00 UTC

From

From Standard forecast or significant change

Wind
  • 320° at 4 KTS
Cloud Levels
  • Scattered at 2,600' AGL
  • Scattered at 10,000' AGL

Mar-23@
02:00 UTC

Mar-23 @ 02:00 UTC

Mar-23@
08:00 UTC

Mar-23 @ 08:00 UTC

BECMG 2302/2305 VRB03KT 7000 FEW026 SCT100 FM 230800 16009KT 9999 -RA BKN023 BKN090

Becoming

Becoming Conditions expected by Sat, Mar 23, 2019 @ 05:00 UTC

Wind
  • Variable at 3 KTS
Cloud Levels
  • Few at 2,600' AGL
  • Scattered at 10,000' AGL

Mar-23@
08:00 UTC

Mar-23 @ 08:00 UTC

Mar-23@
18:00 UTC

Mar-23 @ 18:00 UTC

From

From Standard forecast or significant change

Wind
  • 160° at 9 KTS
Conditions
Light Rain
Cloud Levels
  • Broken at 2,300' AGL
  • Broken at 9,000' AGL

Mar-23@
12:00 UTC

Mar-23 @ 12:00 UTC

Mar-23@
16:00 UTC

Mar-23 @ 16:00 UTC

TEMPO 2312/2316 18010G20KT TS/-TSRA FEW020CB BKN023 FM 231800 06004KT SCT026 SCT100

Temporary

Temporary Changes expected for less than half the time period

Wind
  • 180° at 10 KTS
  • {Gusting to 20 KTS
Conditions
Light Thunderstorm, Light Rain, Thunderstorm
Cloud Levels
  • Few at 2,000' AGL
  • Broken at 2,300' AGL

Mar-23@
18:00 UTC

Mar-23 @ 18:00 UTC

Mar-23@
23:00 UTC

Mar-23 @ 23:00 UTC

From

From Standard forecast or significant change

Wind
  • 060° at 4 KTS
Cloud Levels
  • Scattered at 2,600' AGL
  • Scattered at 10,000' AGL